aviador You're here:

KGLD Decoded Metar

GOODLAND in KS, USA
Report Time2017-08-22 02:53:00
UTC Time2017-08-22 03:16:15
Flight Rules vfr VFR
Wind350° at 08 kt
W.Decomp.*RWY 35: 7.9 kt HW 1.3 kt LCW
RWY 30: 6.0 kt HW 5.2 kt RCW
RWY 05: 2.9 kt HW 7.5 kt LCW
W.Rank350° ranks 9
Current wind is below 350° avg. (12.8)
Visibility9999 m
Phenomena:N/A
Clouds:N/A
Expected CloudBase > 1,600 ft AGL from Temp-Dew spread
CeilingNone
Temp23°C (ISA +15)
Dew Point19°C (78% RH)
QNH1019 hPa
Density Alt5,518 ft
Elevation3,652 ft
Report Wrong Elevation
Raw Report
KGLD 220253Z AUTO 35008KT 10SM CLR 23/19 A3008 RMK AO2 SLP142
T02330194 53020=

Extra information for KGLD:More info

Metar Taf Metar & Taf Last 4 Metars F.Rules Stats Wind Profile Meteogram Temp Stats Airport Information Weather charts Add Link Nearby VenuesMetar ALERT Operation Metar Decoded Social comments

AIRNAV info for KGLD